Map Display - EGNM to LEAL
(last flight recorded 27-05-2020, 21:48 - Andrew Siddall)

Aircraft Weights    Units : Maximums
Passengers :    
Cargo : kg kg
Suggested Fuel Load : kg ? kg
 
     
 
Dry Operating : kg    
Total Payload : 0 kg 0 kg
 
Take Off : 11,351 kg kg
 
Expected Landing : 3,829 kg ? kg

Andrew Siddall,  B722 ,  G-BPNY,  .

Route Distance Previous
Flights
Estimated
Duration
Estimated
Fuel Flow
Estimated
Fuel Use
EGNM - Leeds Bradford
LEAL - Alicante, Spain
937 nm 0 02:50 2,735 kg/h 7,522 kg

Current weather :-
2020/05/27 12:00
TAF EGNM 271102Z 2712/2716 02005KT 9999 FEW045
2020/05/28 06:27
TAF TAF LEAL 280500Z 2806/2906 02006KT 9999 FEW018 TX27/2812Z TN18/2806Z
BECMG 2806/2809 07016KT
BECMG 2819/2822 04007KT

Back to Virtual Airline